This is the latest recevied weather packets stored in our database for station/object KD8OZS. If no packets are shown the sender has not sent any weather packets the latest 10 day(s).
| Time | Temp. | Humidity | Pressure | Rain* | Wind** | Luminosity | Snow |
|---|---|---|---|---|---|---|---|
| 1788101503 | 23.33° C | 88% | 1013.8 hPa | 0 mm | - | 78 W/m² | - |
| 1788101198 | 23.33° C | 87% | 1013.9 hPa | 0 mm | - | 73 W/m² | - |
| 1788100894 | 24.44° C | 86% | 1013.7 hPa | 0 mm | - | 80 W/m² | - |
| 1788100590 | 24.44° C | 79% | 1013.6 hPa | 0 mm | - | 82 W/m² | - |
| 1788100288 | 24.44° C | 79% | 1013.4 hPa | 0 mm | - | 91 W/m² | - |
| 1788099984 | 24.44° C | 80% | 1013.4 hPa | 0 mm | - | 136 W/m² | - |
| 1788099678 | 24.44° C | 82% | 1013.3 hPa | 0 mm | - | 140 W/m² | - |
| 1788099374 | 24.44° C | 79% | 1013.2 hPa | 0 mm | - | 134 W/m² | - |
| 1788099069 | 25° C | 78% | 1013 hPa | 0 mm | - | 136 W/m² | - |
| 1788098763 | 25° C | 78% | 1012.9 hPa | 0 mm | - | 155 W/m² | - |
| 1788098458 | 25.56° C | 77% | 1012.9 hPa | 0 mm | - | 170 W/m² | - |
| 1788098154 | 25° C | 80% | 1013 hPa | 0 mm | - | 229 W/m² | - |
| 1788097854 | 24.44° C | 80% | 1012.9 hPa | 0 mm | - | 526 W/m² | - |
| 1788097550 | 24.44° C | 81% | 1012.9 hPa | 0 mm | - | 330 W/m² | - |
| 1788097250 | 23.33° C | 85% | 1012.9 hPa | 0 mm | - | 370 W/m² | - |
| 1788096945 | 22.78° C | 86% | 1012.9 hPa | 0 mm | - | 261 W/m² | - |
| 1788096640 | 22.22° C | 87% | 1013 hPa | 0 mm | - | 239 W/m² | - |
| 1788096336 | 22.78° C | 85% | 1013.1 hPa | 0 mm | - | 268 W/m² | - |
| 1788096031 | 22.78° C | 84% | 1013.2 hPa | 0 mm | - | 265 W/m² | - |
| 1788095730 | 22.22° C | 85% | 1013.2 hPa | 0 mm | - | 246 W/m² | - |
| 1788095426 | 22.22° C | 85% | 1013.2 hPa | 0 mm | - | 284 W/m² | - |
| 1788095121 | 21.11° C | 88% | 1013.4 hPa | 0 mm | - | 179 W/m² | - |
| 1788094816 | 20° C | 92% | 1013.4 hPa | 0 mm | - | 150 W/m² | - |
| 1788094510 | 19.44° C | 95% | 1013.3 hPa | 0 mm | - | 118 W/m² | - |
| 1788094209 | 19.44° C | 98% | 1013.2 hPa | 0 mm | - | 160 W/m² | - |
* Rain latest hour (hover to see other rain measurements)
** Current wind speed in m/s (hover to see current wind gust speed)